Yokosuka — JCOY — position and weather

sailwx.info

Track history (hours):
 
Tides and Currents Weather Stations Pressure Air Temp Water Temp Dewpoint Dewpoint Depression Visibility Wind Speed Wind Dir Waves Ship Positions

Oceanographic research ship Yokosuka (Japan)

Detailed information on ship capabilities available from University of Delaware's Ocean Information Center.

Last reported at 2017-Dec-11 00:01 UTC. Time now 2017-Dec-13 13:00 UTC.
Position N 34°59' E 139°07'.

Length 105.2 m; beam 16 m.

Type: Other ship. MMSI: 431460000.

Date/timePositionNaut miles runAvg speedWind from/ knotsBaromVisibWave heightAir tempDewpointWater temp
2017-Dec-11 00:01N 34°59' E 139°07'1 4.9
2017-Dec-10 23:54N 34°59' E 139°07'3 8.4
2017-Dec-10 23:31N 34°59' E 139°11'4 8.8
2017-Dec-10 23:00N 34°58' E 139°17'1 1.3
2017-Dec-10 22:30N 34°58' E 139°16'1 1.2
2017-Dec-10 22:00N 34°58' E 139°15'0 0.9
2017-Dec-10 21:30N 34°58' E 139°15'4 7.6
2017-Dec-10 20:58N 34°57' E 139°19'610.7
2017-Dec-10 20:27N 34°53' E 139°24'915.6
2017-Dec-10 19:50N 34°45' E 139°30'515.9
2017-Dec-10 19:30N 34°39' E 139°32'1115.7
2017-Dec-10 18:48N 34°29' E 139°29'616.7
2017-Dec-10 18:28N 34°23' E 139°27'6 0.2
2017-Dec-09 08:48N 34°18' E 139°28'311.1
2017-Dec-09 08:30N 34°21' E 139°29'611.6
2017-Dec-09 08:00N 34°27' E 139°30'711.7
2017-Dec-09 07:23N 34°34' E 139°32'411.7
2017-Dec-09 07:01N 34°38' E 139°32'1015.7
2017-Dec-09 06:23N 34°48' E 139°28'615.9
2017-Dec-09 06:00N 34°53' E 139°25'714.7
2017-Dec-09 05:30N 34°59' E 139°20'3 6.3
2017-Dec-09 05:00N 35°01' E 139°17'0 0.4
2017-Dec-09 04:30N 35°01' E 139°17'1 2.9
2017-Dec-09 04:00N 35°00' E 139°15'1 1.2
2017-Dec-09 03:13N 34°60' E 139°14'0 1.0
2017-Dec-09 03:00N 34°60' E 139°14'0 0.2
2017-Dec-09 02:30N 34°60' E 139°14'1 1.9
2017-Dec-09 02:00N 35°01' E 139°15'1 2.1
2017-Dec-09 01:30N 35°01' E 139°15'0 0.7
2017-Dec-09 00:58N 35°02' E 139°15'0 0.3
2017-Dec-09 00:30N 35°02' E 139°15'0 0.1
2017-Dec-08 23:59N 35°02' E 139°15'0 0.4
2017-Dec-08 23:30N 35°01' E 139°15'1 1.4
2017-Dec-08 22:59N 35°02' E 139°14'1 1.1
2017-Dec-08 22:30N 35°01' E 139°15'3 4.9
2017-Dec-08 21:57N 35°01' E 139°18'2 4.7
2017-Dec-08 21:30N 35°02' E 139°16'3 5.0
2017-Dec-08 21:00N 35°03' E 139°13'2 4.4
2017-Dec-08 20:30N 35°04' E 139°11'2 4.2
2017-Dec-08 20:00N 35°04' E 139°08'0 0.3
2017-Dec-08 19:30N 35°04' E 139°08'0 0.4
2017-Dec-08 19:00N 35°04' E 139°08'0 0.7
2017-Dec-08 18:29N 35°04' E 139°08'0 0.4
2017-Dec-08 18:00N 35°04' E 139°08'0 0.3
2017-Dec-08 17:30N 35°04' E 139°08'0 0.1
2017-Dec-08 17:00N 35°04' E 139°08'0 0.3
2017-Dec-08 16:30N 35°04' E 139°08'0 0.3
2017-Dec-08 16:00N 35°04' E 139°08'0 0.8
2017-Dec-08 15:30N 35°04' E 139°08'0 0.5
2017-Dec-08 15:00N 35°04' E 139°08'0 0.5
2017-Dec-08 14:30N 35°05' E 139°08'0 0.8
2017-Dec-08 14:00N 35°05' E 139°08'0 0.9
2017-Dec-08 13:30N 35°05' E 139°08'0 0.8
2017-Dec-08 13:00N 35°06' E 139°08'0 0.8
2017-Dec-08 12:30N 35°06' E 139°09'1 1.0
2017-Dec-08 12:00N 35°07' E 139°09'0 0.9
2017-Dec-08 11:30N 35°07' E 139°09'1 1.4
2017-Dec-08 11:00N 35°06' E 139°08'1 3.0
2017-Dec-08 10:30N 35°05' E 139°08'2 3.1
2017-Dec-08 10:00N 35°03' E 139°08'3 3.0
2017-Dec-08 09:10N 35°01' E 139°08'1 2.7
2017-Dec-08 08:58N 35°00' E 139°08'1 2.3
2017-Dec-08 08:30N 34°59' E 139°08'2 3.1
2017-Dec-08 08:00N 35°00' E 139°09'1 2.8
2017-Dec-08 07:29N 35°01' E 139°11'1 2.0
2017-Dec-08 07:00N 35°02' E 139°12'1 1.7
2017-Dec-08 06:30N 35°02' E 139°12'1 1.2
2017-Dec-08 05:57N 35°02' E 139°12'1 2.6
2017-Dec-08 05:30N 35°01' E 139°11'1 1.4
2017-Dec-08 04:58N 35°01' E 139°12'0 0.7
2017-Dec-08 04:29N 35°01' E 139°12'0 1.0
2017-Dec-08 03:59N 35°01' E 139°12'511.3
2017-Dec-08 03:30N 35°02' E 139°19'611.4
2017-Dec-08 02:59N 35°04' E 139°26'510.7
2017-Dec-08 02:30N 35°04' E 139°32'510.8
2017-Dec-08 02:00N 35°05' E 139°39'5 9.5
2017-Dec-08 01:30N 35°07' E 139°44'611.4
2017-Dec-08 01:00N 35°13' E 139°46'611.7
2017-Dec-08 00:30N 35°18' E 139°44'4 7.2
2017-Dec-07 23:56N 35°19' E 139°39'0 0.0
2017-Dec-07 23:26N 35°19' E 139°39'0 0.0
2017-Dec-07 22:59N 35°19' E 139°39'0 0.0
2017-Dec-07 22:26N 35°19' E 139°39'0 0.0
2017-Dec-07 21:59N 35°19' E 139°39'0 0.0
2017-Dec-07 21:29N 35°19' E 139°39'0 0.0
2017-Dec-07 20:56N 35°19' E 139°39'0 0.0
2017-Dec-07 20:29N 35°19' E 139°39'0 0.0
2017-Dec-07 19:59N 35°19' E 139°39'0 0.0
2017-Dec-07 19:29N 35°19' E 139°39'0 0.0
2017-Dec-07 18:59N 35°19' E 139°39'0 0.0
2017-Dec-07 18:26N 35°19' E 139°39'0 0.0
2017-Dec-07 17:59N 35°19' E 139°39'0 0.0
2017-Dec-07 17:29N 35°19' E 139°39'0 0.0
2017-Dec-07 16:59N 35°19' E 139°39'0 0.0
2017-Dec-07 16:29N 35°19' E 139°39'0 0.0
2017-Dec-07 15:59N 35°19' E 139°39'0 0.0
2017-Dec-07 15:26N 35°19' E 139°39'0 0.0
2017-Dec-07 14:59N 35°19' E 139°39'0 0.0
2017-Dec-07 14:26N 35°19' E 139°39'0 0.0
2017-Dec-07 13:59N 35°19' E 139°39'0 0.0
2017-Dec-07 13:23N 35°19' E 139°39'0 0.0
2017-Dec-07 12:59N 35°19' E 139°39'0 0.0
2017-Dec-07 12:29N 35°19' E 139°39'0 0.0
2017-Dec-07 11:59N 35°19' E 139°39'0 0.0
2017-Dec-07 11:26N 35°19' E 139°39'0 0.0
2017-Dec-07 11:00N 35°19' E 139°39'0 0.0
2017-Dec-07 10:30N 35°19' E 139°39'0 0.0
2017-Dec-07 09:57N 35°19' E 139°39'0 0.0
2017-Dec-07 09:30N 35°19' E 139°39'0 0.0
2017-Dec-07 09:00N 35°19' E 139°39'0 0.0
2017-Dec-07 08:30N 35°19' E 139°39'0 0.0
2017-Dec-07 08:00N 35°19' E 139°39'0 0.0
2017-Dec-07 07:27N 35°19' E 139°39'0 0.0
2017-Dec-07 07:00N 35°19' E 139°39'0 0.0
2017-Dec-07 06:30N 35°19' E 139°39'0 0.0
2017-Dec-07 06:00N 35°19' E 139°39'0 0.0
2017-Dec-07 05:24N 35°19' E 139°39'0 0.0
2017-Dec-07 04:42N 35°19' E 139°39'0 0.0
2017-Dec-07 04:21N 35°19' E 139°39'0 0.0
2017-Dec-07 03:54N 35°19' E 139°39'0 0.0
2017-Dec-07 03:27N 35°19' E 139°39'0 0.0
2017-Dec-07 02:51N 35°19' E 139°39'0 0.0
2017-Dec-07 02:30N 35°19' E 139°39'0 0.0
2017-Dec-07 01:51N 35°19' E 139°39'0 0.0
2017-Dec-07 01:24N 35°19' E 139°39'0 0.0
2017-Dec-07 00:57N 35°19' E 139°39'0 0.0
2017-Dec-07 00:30N 35°19' E 139°39'0 0.0
2017-Dec-07 00:00N 35°19' E 139°39'0 0.0
2017-Dec-06 23:30N 35°19' E 139°39'0 0.0
2017-Dec-06 22:54N 35°19' E 139°39'0 0.0
2017-Dec-06 22:27N 35°19' E 139°39'0 0.0
2017-Dec-06 22:00N 35°19' E 139°39'0 0.0
2017-Dec-06 21:30N 35°19' E 139°39'0 0.0
2017-Dec-06 21:00N 35°19' E 139°39'  
2017-Dec-04 10:30N 35°19' E 139°39'0 0.0
2017-Dec-04 09:57N 35°19' E 139°39'0 0.0
2017-Dec-04 09:30N 35°19' E 139°39'0 0.0
2017-Dec-04 09:00N 35°19' E 139°39'0 0.0
2017-Dec-04 08:27N 35°19' E 139°39'0 0.0
2017-Dec-04 08:00N 35°19' E 139°39'0 0.0
2017-Dec-04 07:30N 35°19' E 139°39'0 0.0
2017-Dec-04 07:00N 35°19' E 139°39'0 0.0
2017-Dec-04 06:21N 35°19' E 139°39'0 0.0
2017-Dec-04 06:00N 35°19' E 139°39'1 2.8
2017-Dec-04 05:30N 35°19' E 139°41'510.1
2017-Dec-04 05:00N 35°16' E 139°46'612.6
2017-Dec-04 04:30N 35°10' E 139°46'714.0
2017-Dec-04 04:00N 35°03' E 139°43'714.3
2017-Dec-04 03:30N 34°58' E 139°38'714.5
2017-Dec-04 03:00N 34°56' E 139°29'915.5
2017-Dec-04 02:24N 34°57' E 139°18'4 8.4
2017-Dec-04 01:55N 34°58' E 139°13'1 1.2
2017-Dec-04 01:29N 34°58' E 139°13'0 0.9
2017-Dec-04 01:00N 34°59' E 139°13'0 0.4
2017-Dec-04 00:30N 34°59' E 139°13'0 0.2
2017-Dec-03 23:59N 34°59' E 139°13'0 0.2
2017-Dec-03 23:30N 34°59' E 139°13'0 0.1
2017-Dec-03 22:27N 34°59' E 139°13'0 0.1
2017-Dec-03 21:52N 34°59' E 139°13'2 4.5
2017-Dec-03 21:29N 34°59' E 139°15'1 1.3
2017-Dec-03 21:00N 34°59' E 139°16'1 1.8
2017-Dec-03 20:30N 35°00' E 139°17'0 0.9
2017-Dec-03 20:00N 35°01' E 139°17'0 0.8
2017-Dec-03 19:30N 35°01' E 139°17'0 0.6
2017-Dec-03 19:00N 35°01' E 139°17'0 0.3
2017-Dec-03 18:30N 35°01' E 139°17'0 0.3
2017-Dec-03 18:00N 35°01' E 139°17'0 0.6
2017-Dec-03 17:30N 35°02' E 139°17'0 0.7
2017-Dec-03 17:00N 35°02' E 139°17'1 1.0
2017-Dec-03 16:30N 35°02' E 139°16'1 1.0
2017-Dec-03 15:59N 35°01' E 139°16'0 0.8
2017-Dec-03 15:28N 35°01' E 139°15'0 0.8
2017-Dec-03 14:59N 35°01' E 139°15'1 1.1
2017-Dec-03 14:25N 35°01' E 139°14'1 1.5
2017-Dec-03 14:00N 35°01' E 139°14'1 1.3
2017-Dec-03 13:28N 35°02' E 139°13'0 0.9
2017-Dec-03 13:00N 35°02' E 139°13'0 0.7
2017-Dec-03 12:30N 35°02' E 139°13'1 1.5
2017-Dec-03 12:00N 35°03' E 139°12'1 1.5
2017-Dec-03 11:29N 35°03' E 139°12'1 1.4
2017-Dec-03 11:00N 35°04' E 139°11'0 0.8
2017-Dec-03 10:30N 35°04' E 139°11'1 1.1
2017-Dec-03 10:00N 35°05' E 139°11'0 1.0
2017-Dec-03 09:30N 35°05' E 139°10'0 0.8
2017-Dec-03 08:58N 35°06' E 139°10'0 0.7
2017-Dec-03 08:30N 35°06' E 139°10'0 0.7
2017-Dec-03 07:59N 35°06' E 139°10'5 9.4
2017-Dec-03 07:30N 35°03' E 139°14'815.6
2017-Dec-03 07:00N 34°57' E 139°21'916.2
2017-Dec-03 06:26N 34°50' E 139°27'917.0
2017-Dec-03 05:54N 34°43' E 139°34'814.8
2017-Dec-03 05:23N 34°37' E 139°39'  
Track history (hours):
 
Tides and Currents Weather Stations Pressure Air Temp Water Temp Dewpoint Dewpoint Depression Visibility Wind Speed Wind Dir Waves Ship Positions

Oceanographic research ship Yokosuka (Japan)

Detailed information on ship capabilities available from University of Delaware's Ocean Information Center.

Last reported at 2017-Dec-11 00:01 UTC. Time now 2017-Dec-13 13:00 UTC.
Position N 34°59' E 139°07'.

Length 105.2 m; beam 16 m.

Type: Other ship. MMSI: 431460000.

Date/timePositionNaut miles runAvg speedWind from/ knotsBaromVisibWave heightAir tempDewpointWater temp
2017-Dec-11 00:01N 34°59' E 139°07'1 4.9
2017-Dec-10 23:54N 34°59' E 139°07'3 8.4
2017-Dec-10 23:31N 34°59' E 139°11'4 8.8
2017-Dec-10 23:00N 34°58' E 139°17'1 1.3
2017-Dec-10 22:30N 34°58' E 139°16'1 1.2
2017-Dec-10 22:00N 34°58' E 139°15'0 0.9
2017-Dec-10 21:30N 34°58' E 139°15'4 7.6
2017-Dec-10 20:58N 34°57' E 139°19'610.7
2017-Dec-10 20:27N 34°53' E 139°24'915.6
2017-Dec-10 19:50N 34°45' E 139°30'515.9
2017-Dec-10 19:30N 34°39' E 139°32'1115.7
2017-Dec-10 18:48N 34°29' E 139°29'616.7
2017-Dec-10 18:28N 34°23' E 139°27'6 0.2
2017-Dec-09 08:48N 34°18' E 139°28'311.1
2017-Dec-09 08:30N 34°21' E 139°29'611.6
2017-Dec-09 08:00N 34°27' E 139°30'711.7
2017-Dec-09 07:23N 34°34' E 139°32'411.7
2017-Dec-09 07:01N 34°38' E 139°32'1015.7
2017-Dec-09 06:23N 34°48' E 139°28'615.9
2017-Dec-09 06:00N 34°53' E 139°25'714.7
2017-Dec-09 05:30N 34°59' E 139°20'3 6.3
2017-Dec-09 05:00N 35°01' E 139°17'0 0.4
2017-Dec-09 04:30N 35°01' E 139°17'1 2.9
2017-Dec-09 04:00N 35°00' E 139°15'1 1.2
2017-Dec-09 03:13N 34°60' E 139°14'0 1.0
2017-Dec-09 03:00N 34°60' E 139°14'0 0.2
2017-Dec-09 02:30N 34°60' E 139°14'1 1.9
2017-Dec-09 02:00N 35°01' E 139°15'1 2.1
2017-Dec-09 01:30N 35°01' E 139°15'0 0.7
2017-Dec-09 00:58N 35°02' E 139°15'0 0.3
2017-Dec-09 00:30N 35°02' E 139°15'0 0.1
2017-Dec-08 23:59N 35°02' E 139°15'0 0.4
2017-Dec-08 23:30N 35°01' E 139°15'1 1.4
2017-Dec-08 22:59N 35°02' E 139°14'1 1.1
2017-Dec-08 22:30N 35°01' E 139°15'3 4.9
2017-Dec-08 21:57N 35°01' E 139°18'2 4.7
2017-Dec-08 21:30N 35°02' E 139°16'3 5.0
2017-Dec-08 21:00N 35°03' E 139°13'2 4.4
2017-Dec-08 20:30N 35°04' E 139°11'2 4.2
2017-Dec-08 20:00N 35°04' E 139°08'0 0.3
2017-Dec-08 19:30N 35°04' E 139°08'0 0.4
2017-Dec-08 19:00N 35°04' E 139°08'0 0.7
2017-Dec-08 18:29N 35°04' E 139°08'0 0.4
2017-Dec-08 18:00N 35°04' E 139°08'0 0.3
2017-Dec-08 17:30N 35°04' E 139°08'0 0.1
2017-Dec-08 17:00N 35°04' E 139°08'0 0.3
2017-Dec-08 16:30N 35°04' E 139°08'0 0.3
2017-Dec-08 16:00N 35°04' E 139°08'0 0.8
2017-Dec-08 15:30N 35°04' E 139°08'0 0.5
2017-Dec-08 15:00N 35°04' E 139°08'0 0.5
2017-Dec-08 14:30N 35°05' E 139°08'0 0.8
2017-Dec-08 14:00N 35°05' E 139°08'0 0.9
2017-Dec-08 13:30N 35°05' E 139°08'0 0.8
2017-Dec-08 13:00N 35°06' E 139°08'0 0.8
2017-Dec-08 12:30N 35°06' E 139°09'1 1.0
2017-Dec-08 12:00N 35°07' E 139°09'0 0.9
2017-Dec-08 11:30N 35°07' E 139°09'1 1.4
2017-Dec-08 11:00N 35°06' E 139°08'1 3.0
2017-Dec-08 10:30N 35°05' E 139°08'2 3.1
2017-Dec-08 10:00N 35°03' E 139°08'3 3.0
2017-Dec-08 09:10N 35°01' E 139°08'1 2.7
2017-Dec-08 08:58N 35°00' E 139°08'1 2.3
2017-Dec-08 08:30N 34°59' E 139°08'2 3.1
2017-Dec-08 08:00N 35°00' E 139°09'1 2.8
2017-Dec-08 07:29N 35°01' E 139°11'1 2.0
2017-Dec-08 07:00N 35°02' E 139°12'1 1.7
2017-Dec-08 06:30N 35°02' E 139°12'1 1.2
2017-Dec-08 05:57N 35°02' E 139°12'1 2.6
2017-Dec-08 05:30N 35°01' E 139°11'1 1.4
2017-Dec-08 04:58N 35°01' E 139°12'0 0.7
2017-Dec-08 04:29N 35°01' E 139°12'0 1.0
2017-Dec-08 03:59N 35°01' E 139°12'511.3
2017-Dec-08 03:30N 35°02' E 139°19'611.4
2017-Dec-08 02:59N 35°04' E 139°26'510.7
2017-Dec-08 02:30N 35°04' E 139°32'510.8
2017-Dec-08 02:00N 35°05' E 139°39'5 9.5
2017-Dec-08 01:30N 35°07' E 139°44'611.4
2017-Dec-08 01:00N 35°13' E 139°46'611.7
2017-Dec-08 00:30N 35°18' E 139°44'4 7.2
2017-Dec-07 23:56N 35°19' E 139°39'0 0.0
2017-Dec-07 23:26N 35°19' E 139°39'0 0.0
2017-Dec-07 22:59N 35°19' E 139°39'0 0.0
2017-Dec-07 22:26N 35°19' E 139°39'0 0.0
2017-Dec-07 21:59N 35°19' E 139°39'0 0.0
2017-Dec-07 21:29N 35°19' E 139°39'0 0.0
2017-Dec-07 20:56N 35°19' E 139°39'0 0.0
2017-Dec-07 20:29N 35°19' E 139°39'0 0.0
2017-Dec-07 19:59N 35°19' E 139°39'0 0.0
2017-Dec-07 19:29N 35°19' E 139°39'0 0.0
2017-Dec-07 18:59N 35°19' E 139°39'0 0.0
2017-Dec-07 18:26N 35°19' E 139°39'0 0.0
2017-Dec-07 17:59N 35°19' E 139°39'0 0.0
2017-Dec-07 17:29N 35°19' E 139°39'0 0.0
2017-Dec-07 16:59N 35°19' E 139°39'0 0.0
2017-Dec-07 16:29N 35°19' E 139°39'0 0.0
2017-Dec-07 15:59N 35°19' E 139°39'0 0.0
2017-Dec-07 15:26N 35°19' E 139°39'0 0.0
2017-Dec-07 14:59N 35°19' E 139°39'0 0.0
2017-Dec-07 14:26N 35°19' E 139°39'0 0.0
2017-Dec-07 13:59N 35°19' E 139°39'0 0.0
2017-Dec-07 13:23N 35°19' E 139°39'0 0.0
2017-Dec-07 12:59N 35°19' E 139°39'0 0.0
2017-Dec-07 12:29N 35°19' E 139°39'0 0.0
2017-Dec-07 11:59N 35°19' E 139°39'0 0.0
2017-Dec-07 11:26N 35°19' E 139°39'0 0.0
2017-Dec-07 11:00N 35°19' E 139°39'0 0.0
2017-Dec-07 10:30N 35°19' E 139°39'0 0.0
2017-Dec-07 09:57N 35°19' E 139°39'0 0.0
2017-Dec-07 09:30N 35°19' E 139°39'0 0.0
2017-Dec-07 09:00N 35°19' E 139°39'0 0.0
2017-Dec-07 08:30N 35°19' E 139°39'0 0.0
2017-Dec-07 08:00N 35°19' E 139°39'0 0.0
2017-Dec-07 07:27N 35°19' E 139°39'0 0.0
2017-Dec-07 07:00N 35°19' E 139°39'0 0.0
2017-Dec-07 06:30N 35°19' E 139°39'0 0.0
2017-Dec-07 06:00N 35°19' E 139°39'0 0.0
2017-Dec-07 05:24N 35°19' E 139°39'0 0.0
2017-Dec-07 04:42N 35°19' E 139°39'0 0.0
2017-Dec-07 04:21N 35°19' E 139°39'0 0.0
2017-Dec-07 03:54N 35°19' E 139°39'0 0.0
2017-Dec-07 03:27N 35°19' E 139°39'0 0.0
2017-Dec-07 02:51N 35°19' E 139°39'0 0.0
2017-Dec-07 02:30N 35°19' E 139°39'0 0.0
2017-Dec-07 01:51N 35°19' E 139°39'0 0.0
2017-Dec-07 01:24N 35°19' E 139°39'0 0.0
2017-Dec-07 00:57N 35°19' E 139°39'0 0.0
2017-Dec-07 00:30N 35°19' E 139°39'0 0.0
2017-Dec-07 00:00N 35°19' E 139°39'0 0.0
2017-Dec-06 23:30N 35°19' E 139°39'0 0.0
2017-Dec-06 22:54N 35°19' E 139°39'0 0.0
2017-Dec-06 22:27N 35°19' E 139°39'0 0.0
2017-Dec-06 22:00N 35°19' E 139°39'0 0.0
2017-Dec-06 21:30N 35°19' E 139°39'0 0.0
2017-Dec-06 21:00N 35°19' E 139°39'  
2017-Dec-04 10:30N 35°19' E 139°39'0 0.0
2017-Dec-04 09:57N 35°19' E 139°39'0 0.0
2017-Dec-04 09:30N 35°19' E 139°39'0 0.0
2017-Dec-04 09:00N 35°19' E 139°39'0 0.0
2017-Dec-04 08:27N 35°19' E 139°39'0 0.0
2017-Dec-04 08:00N 35°19' E 139°39'0 0.0
2017-Dec-04 07:30N 35°19' E 139°39'0 0.0
2017-Dec-04 07:00N 35°19' E 139°39'0 0.0
2017-Dec-04 06:21N 35°19' E 139°39'0 0.0
2017-Dec-04 06:00N 35°19' E 139°39'1 2.8
2017-Dec-04 05:30N 35°19' E 139°41'510.1
2017-Dec-04 05:00N 35°16' E 139°46'612.6
2017-Dec-04 04:30N 35°10' E 139°46'714.0
2017-Dec-04 04:00N 35°03' E 139°43'714.3
2017-Dec-04 03:30N 34°58' E 139°38'714.5
2017-Dec-04 03:00N 34°56' E 139°29'915.5
2017-Dec-04 02:24N 34°57' E 139°18'4 8.4
2017-Dec-04 01:55N 34°58' E 139°13'1 1.2
2017-Dec-04 01:29N 34°58' E 139°13'0 0.9
2017-Dec-04 01:00N 34°59' E 139°13'0 0.4
2017-Dec-04 00:30N 34°59' E 139°13'0 0.2
2017-Dec-03 23:59N 34°59' E 139°13'0 0.2
2017-Dec-03 23:30N 34°59' E 139°13'0 0.1
2017-Dec-03 22:27N 34°59' E 139°13'0 0.1
2017-Dec-03 21:52N 34°59' E 139°13'2 4.5
2017-Dec-03 21:29N 34°59' E 139°15'1 1.3
2017-Dec-03 21:00N 34°59' E 139°16'1 1.8
2017-Dec-03 20:30N 35°00' E 139°17'0 0.9
2017-Dec-03 20:00N 35°01' E 139°17'0 0.8
2017-Dec-03 19:30N 35°01' E 139°17'0 0.6
2017-Dec-03 19:00N 35°01' E 139°17'0 0.3
2017-Dec-03 18:30N 35°01' E 139°17'0 0.3
2017-Dec-03 18:00N 35°01' E 139°17'0 0.6
2017-Dec-03 17:30N 35°02' E 139°17'0 0.7
2017-Dec-03 17:00N 35°02' E 139°17'1 1.0
2017-Dec-03 16:30N 35°02' E 139°16'1 1.0
2017-Dec-03 15:59N 35°01' E 139°16'0 0.8
2017-Dec-03 15:28N 35°01' E 139°15'0 0.8
2017-Dec-03 14:59N 35°01' E 139°15'1 1.1
2017-Dec-03 14:25N 35°01' E 139°14'1 1.5
2017-Dec-03 14:00N 35°01' E 139°14'1 1.3
2017-Dec-03 13:28N 35°02' E 139°13'0 0.9
2017-Dec-03 13:00N 35°02' E 139°13'0 0.7
2017-Dec-03 12:30N 35°02' E 139°13'1 1.5
2017-Dec-03 12:00N 35°03' E 139°12'1 1.5
2017-Dec-03 11:29N 35°03' E 139°12'1 1.4
2017-Dec-03 11:00N 35°04' E 139°11'0 0.8
2017-Dec-03 10:30N 35°04' E 139°11'1 1.1
2017-Dec-03 10:00N 35°05' E 139°11'0 1.0
2017-Dec-03 09:30N 35°05' E 139°10'0 0.8
2017-Dec-03 08:58N 35°06' E 139°10'0 0.7
2017-Dec-03 08:30N 35°06' E 139°10'0 0.7
2017-Dec-03 07:59N 35°06' E 139°10'5 9.4
2017-Dec-03 07:30N 35°03' E 139°14'815.6
2017-Dec-03 07:00N 34°57' E 139°21'916.2
2017-Dec-03 06:26N 34°50' E 139°27'917.0
2017-Dec-03 05:54N 34°43' E 139°34'814.8
2017-Dec-03 05:23N 34°37' E 139°39'  

Dump ship's entire track history